sensor_id;sensor_type;location;lat;lon;timestamp;pressure;altitude;pressure_sealevel;temperature;humidity
16544;BME280;8384;47.996;7.786;2022-09-17T00:02:10;98566.97;;;9.69;100.00
16544;BME280;8384;47.996;7.786;2022-09-17T00:04:37;98585.69;;;9.82;100.00
16544;BME280;8384;47.996;7.786;2022-09-17T00:07:03;98595.13;;;9.69;100.00
16544;BME280;8384;47.996;7.786;2022-09-17T00:09:28;98595.34;;;9.68;100.00
16544;BME280;8384;47.996;7.786;2022-09-17T00:11:53;98597.94;;;9.80;100.00
16544;BME280;8384;47.996;7.786;2022-09-17T00:14:18;98596.59;;;9.82;100.00
16544;BME280;8384;47.996;7.786;2022-09-17T00:16:46;98598.00;;;9.90;100.00
16544;BME280;8384;47.996;7.786;2022-09-17T00:19:19;98580.72;;;9.79;100.00
16544;BME280;8384;47.996;7.786;2022-09-17T00:21:45;98603.53;;;9.95;100.00
16544;BME280;8384;47.996;7.786;2022-09-17T00:24:12;98615.06;;;10.02;96.33
16544;BME280;8384;47.996;7.786;2022-09-17T00:26:38;98618.19;;;10.21;97.83
16544;BME280;8384;47.996;7.786;2022-09-17T00:29:03;98611.81;;;10.11;99.64
16544;BME280;8384;47.996;7.786;2022-09-17T00:31:30;98614.09;;;9.86;100.00
16544;BME280;8384;47.996;7.786;2022-09-17T00:33:57;98609.06;;;9.73;100.00
16544;BME280;8384;47.996;7.786;2022-09-17T00:36:22;98608.50;;;9.71;100.00
16544;BME280;8384;47.996;7.786;2022-09-17T00:38:55;98588.81;;;9.69;100.00
16544;BME280;8384;47.996;7.786;2022-09-17T00:41:22;98610.59;;;9.91;100.00
16544;BME280;8384;47.996;7.786;2022-09-17T00:43:51;98610.94;;;10.00;100.00
16544;BME280;8384;47.996;7.786;2022-09-17T00:46:20;98620.53;;;10.08;100.00
16544;BME280;8384;47.996;7.786;2022-09-17T00:48:48;98597.03;;;10.01;99.68
16544;BME280;8384;47.996;7.786;2022-09-17T00:51:17;98594.44;;;9.84;100.00
16544;BME280;8384;47.996;7.786;2022-09-17T00:53:45;98622.78;;;10.16;91.13
16544;BME280;8384;47.996;7.786;2022-09-17T00:56:18;98611.84;;;9.78;95.82
16544;BME280;8384;47.996;7.786;2022-09-17T00:58:47;98631.00;;;9.83;93.47
16544;BME280;8384;47.996;7.786;2022-09-17T01:01:13;98632.47;;;9.96;89.19
16544;BME280;8384;47.996;7.786;2022-09-17T01:03:39;98632.44;;;9.91;89.47
16544;BME280;8384;47.996;7.786;2022-09-17T01:06:32;98643.25;;;9.53;95.45
16544;BME280;8384;47.996;7.786;2022-09-17T01:12:08;98639.13;;;9.23;99.79
16544;BME280;8384;47.996;7.786;2022-09-17T01:20:21;98641.91;;;9.28;100.00
16544;BME280;8384;47.996;7.786;2022-09-17T01:37:15;98660.41;;;9.04;100.00
16544;BME280;8384;47.996;7.786;2022-09-17T01:39:49;98659.84;;;9.02;100.00
16544;BME280;8384;47.996;7.786;2022-09-17T01:42:36;98648.91;;;8.97;100.00
16544;BME280;8384;47.996;7.786;2022-09-17T01:45:21;98664.75;;;9.00;100.00
16544;BME280;8384;47.996;7.786;2022-09-17T01:47:53;98661.88;;;8.90;100.00
16544;BME280;8384;47.996;7.786;2022-09-17T01:50:25;98658.28;;;8.84;100.00
16544;BME280;8384;47.996;7.786;2022-09-17T01:52:53;98652.75;;;9.01;100.00
16544;BME280;8384;47.996;7.786;2022-09-17T01:55:22;98661.75;;;9.02;100.00
16544;BME280;8384;47.996;7.786;2022-09-17T01:58:37;98663.34;;;8.97;100.00
16544;BME280;8384;47.996;7.786;2022-09-17T02:00:49;98664.94;;;9.15;100.00
16544;BME280;8384;47.996;7.786;2022-09-17T02:03:29;98672.41;;;9.25;100.00
16544;BME280;8384;47.996;7.786;2022-09-17T02:06:11;98646.56;;;9.06;100.00
16544;BME280;8384;47.996;7.786;2022-09-17T02:08:45;98640.53;;;9.04;100.00
16544;BME280;8384;47.996;7.786;2022-09-17T02:11:13;98659.84;;;9.02;100.00
16544;BME280;8384;47.996;7.786;2022-09-17T02:13:52;98659.19;;;9.12;100.00
16544;BME280;8384;47.996;7.786;2022-09-17T02:16:24;98655.47;;;9.23;100.00
16544;BME280;8384;47.996;7.786;2022-09-17T02:19:04;98655.91;;;9.37;100.00
16544;BME280;8384;47.996;7.786;2022-09-17T02:21:47;98654.03;;;9.38;100.00
16544;BME280;8384;47.996;7.786;2022-09-17T02:24:34;98642.34;;;9.20;100.00
16544;BME280;8384;47.996;7.786;2022-09-17T02:27:32;98660.88;;;9.18;100.00
16544;BME280;8384;47.996;7.786;2022-09-17T02:29:58;98662.13;;;9.10;100.00
16544;BME280;8384;47.996;7.786;2022-09-17T02:32:24;98674.56;;;9.01;100.00
16544;BME280;8384;47.996;7.786;2022-09-17T02:34:49;98638.50;;;8.94;100.00
16544;BME280;8384;47.996;7.786;2022-09-17T02:37:14;98654.09;;;8.98;100.00
16544;BME280;8384;47.996;7.786;2022-09-17T02:39:40;98643.38;;;8.92;100.00
16544;BME280;8384;47.996;7.786;2022-09-17T02:42:22;98653.00;;;8.99;100.00
16544;BME280;8384;47.996;7.786;2022-09-17T02:56:44;98653.06;;;8.82;94.72
16544;BME280;8384;47.996;7.786;2022-09-17T02:59:18;98632.78;;;8.73;95.67
16544;BME280;8384;47.996;7.786;2022-09-17T03:02:02;98657.25;;;8.90;98.72
16544;BME280;8384;47.996;7.786;2022-09-17T03:04:29;98641.00;;;8.78;98.54
16544;BME280;8384;47.996;7.786;2022-09-17T03:06:56;98634.31;;;8.86;96.95
16544;BME280;8384;47.996;7.786;2022-09-17T03:09:24;98643.31;;;8.87;97.23
16544;BME280;8384;47.996;7.786;2022-09-17T03:11:49;98639.06;;;8.74;97.35
16544;BME280;8384;47.996;7.786;2022-09-17T03:14:14;98670.22;;;9.00;98.04
16544;BME280;8384;47.996;7.786;2022-09-17T03:16:39;98663.53;;;8.91;98.78
16544;BME280;8384;47.996;7.786;2022-09-17T03:19:05;98659.59;;;8.81;98.87
16544;BME280;8384;47.996;7.786;2022-09-17T03:21:30;98643.53;;;8.63;95.20
16544;BME280;8384;47.996;7.786;2022-09-17T03:23:56;98669.78;;;8.91;93.45
16544;BME280;8384;47.996;7.786;2022-09-17T03:26:21;98674.00;;;8.99;96.47
16544;BME280;8384;47.996;7.786;2022-09-17T03:28:46;98669.63;;;8.98;97.39
16544;BME280;8384;47.996;7.786;2022-09-17T03:31:11;98674.75;;;8.94;99.10
16544;BME280;8384;47.996;7.786;2022-09-17T03:33:36;98641.69;;;8.68;98.17
16544;BME280;8384;47.996;7.786;2022-09-17T03:36:02;98670.28;;;8.88;99.58
16544;BME280;8384;47.996;7.786;2022-09-17T03:38:27;98676.00;;;8.87;100.00
16544;BME280;8384;47.996;7.786;2022-09-17T03:41:04;98666.00;;;8.70;100.00
16544;BME280;8384;47.996;7.786;2022-09-17T03:43:31;98664.19;;;8.59;100.00
16544;BME280;8384;47.996;7.786;2022-09-17T03:45:57;98656.50;;;8.55;100.00
16544;BME280;8384;47.996;7.786;2022-09-17T03:48:22;98648.69;;;8.59;nan
16544;BME280;8384;47.996;7.786;2022-09-17T03:50:48;98678.34;;;8.78;100.00
16544;BME280;8384;47.996;7.786;2022-09-17T03:53:14;98690.97;;;8.84;98.74
16544;BME280;8384;47.996;7.786;2022-09-17T03:55:39;98685.47;;;8.79;91.86
16544;BME280;8384;47.996;7.786;2022-09-17T03:58:05;98689.47;;;8.93;93.33
16544;BME280;8384;47.996;7.786;2022-09-17T04:00:31;98698.72;;;8.92;95.53
16544;BME280;8384;47.996;7.786;2022-09-17T04:02:56;98692.44;;;8.92;96.60
16544;BME280;8384;47.996;7.786;2022-09-17T04:05:21;98692.44;;;8.92;98.83
16544;BME280;8384;47.996;7.786;2022-09-17T04:07:47;98670.75;;;8.80;98.44
16544;BME280;8384;47.996;7.786;2022-09-17T04:10:13;98699.84;;;8.96;99.22
16544;BME280;8384;47.996;7.786;2022-09-17T04:12:38;98700.63;;;8.92;100.00
16544;BME280;8384;47.996;7.786;2022-09-17T04:15:04;98698.78;;;8.97;100.00
16544;BME280;8384;47.996;7.786;2022-09-17T04:17:29;98707.03;;;9.03;100.00
16544;BME280;8384;47.996;7.786;2022-09-17T04:19:55;98705.97;;;9.04;100.00
16544;BME280;8384;47.996;7.786;2022-09-17T04:22:20;98707.72;;;9.15;100.00
16544;BME280;8384;47.996;7.786;2022-09-17T04:24:45;98684.72;;;9.06;100.00
16544;BME280;8384;47.996;7.786;2022-09-17T04:27:10;98707.97;;;8.91;100.00
16544;BME280;8384;47.996;7.786;2022-09-17T04:29:36;98707.59;;;8.65;100.00
16544;BME280;8384;47.996;7.786;2022-09-17T04:32:01;98700.72;;;8.46;100.00
16544;BME280;8384;47.996;7.786;2022-09-17T04:34:26;98699.03;;;8.57;100.00
16544;BME280;8384;47.996;7.786;2022-09-17T04:36:52;98707.84;;;8.47;100.00
16544;BME280;8384;47.996;7.786;2022-09-17T04:39:17;98700.06;;;8.38;100.00
16544;BME280;8384;47.996;7.786;2022-09-17T04:41:42;98703.88;;;8.37;100.00
16544;BME280;8384;47.996;7.786;2022-09-17T04:44:08;98705.22;;;8.52;100.00
16544;BME280;8384;47.996;7.786;2022-09-17T04:46:33;98713.00;;;8.60;100.00
16544;BME280;8384;47.996;7.786;2022-09-17T04:48:58;98680.72;;;8.52;100.00
16544;BME280;8384;47.996;7.786;2022-09-17T04:51:24;98706.09;;;8.75;100.00
16544;BME280;8384;47.996;7.786;2022-09-17T04:53:49;98714.28;;;8.75;100.00
16544;BME280;8384;47.996;7.786;2022-09-17T04:56:14;98718.84;;;8.69;100.00
16544;BME280;8384;47.996;7.786;2022-09-17T04:58:40;98691.25;;;8.48;100.00
16544;BME280;8384;47.996;7.786;2022-09-17T05:01:05;98719.66;;;8.69;100.00
16544;BME280;8384;47.996;7.786;2022-09-17T05:03:31;98723.25;;;8.75;100.00
16544;BME280;8384;47.996;7.786;2022-09-17T05:05:56;98700.72;;;8.46;100.00
16544;BME280;8384;47.996;7.786;2022-09-17T05:08:21;98717.66;;;8.48;100.00
16544;BME280;8384;47.996;7.786;2022-09-17T05:10:50;98730.31;;;8.54;100.00
16544;BME280;8384;47.996;7.786;2022-09-17T05:13:16;98737.16;;;8.57;100.00
16544;BME280;8384;47.996;7.786;2022-09-17T05:15:42;98714.34;;;8.46;100.00
16544;BME280;8384;47.996;7.786;2022-09-17T05:18:07;98724.00;;;8.36;100.00
16544;BME280;8384;47.996;7.786;2022-09-17T05:20:32;98733.69;;;8.61;100.00
16544;BME280;8384;47.996;7.786;2022-09-17T05:22:58;98735.41;;;8.67;100.00
16544;BME280;8384;47.996;7.786;2022-09-17T05:25:23;98735.75;;;8.71;100.00
16544;BME280;8384;47.996;7.786;2022-09-17T05:27:49;98709.41;;;8.43;100.00
16544;BME280;8384;47.996;7.786;2022-09-17T05:30:16;98736.34;;;8.56;100.00
16544;BME280;8384;47.996;7.786;2022-09-17T05:32:41;98740.25;;;8.60;100.00
16544;BME280;8384;47.996;7.786;2022-09-17T05:35:07;98749.47;;;8.59;100.00
16544;BME280;8384;47.996;7.786;2022-09-17T05:37:33;98754.59;;;8.55;100.00
16544;BME280;8384;47.996;7.786;2022-09-17T05:39:58;98737.75;;;8.59;100.00
16544;BME280;8384;47.996;7.786;2022-09-17T05:42:24;98752.84;;;8.66;100.00
16544;BME280;8384;47.996;7.786;2022-09-17T05:44:49;98725.16;;;8.40;100.00
16544;BME280;8384;47.996;7.786;2022-09-17T05:47:14;98738.41;;;8.49;100.00
16544;BME280;8384;47.996;7.786;2022-09-17T05:49:40;98755.56;;;8.66;100.00
16544;BME280;8384;47.996;7.786;2022-09-17T05:52:05;98763.34;;;8.75;100.00
16544;BME280;8384;47.996;7.786;2022-09-17T05:54:31;98753.69;;;8.84;100.00
16544;BME280;8384;47.996;7.786;2022-09-17T05:56:56;98737.91;;;8.86;100.00
16544;BME280;8384;47.996;7.786;2022-09-17T05:59:21;98774.34;;;9.02;100.00
16544;BME280;8384;47.996;7.786;2022-09-17T06:01:47;98778.50;;;9.05;100.00
16544;BME280;8384;47.996;7.786;2022-09-17T06:04:13;98780.00;;;8.95;100.00
16544;BME280;8384;47.996;7.786;2022-09-17T06:06:38;98782.72;;;8.95;100.00
16544;BME280;8384;47.996;7.786;2022-09-17T06:09:06;98780.50;;;8.92;100.00
16544;BME280;8384;47.996;7.786;2022-09-17T06:11:31;98783.97;;;8.88;100.00
16544;BME280;8384;47.996;7.786;2022-09-17T06:13:57;98764.22;;;8.80;100.00
16544;BME280;8384;47.996;7.786;2022-09-17T06:16:23;98776.78;;;8.98;100.00
16544;BME280;8384;47.996;7.786;2022-09-17T06:18:48;98782.78;;;9.18;100.00
16544;BME280;8384;47.996;7.786;2022-09-17T06:21:14;98792.06;;;9.39;100.00
16544;BME280;8384;47.996;7.786;2022-09-17T06:23:41;98795.50;;;9.51;100.00
16544;BME280;8384;47.996;7.786;2022-09-17T06:26:07;98791.63;;;9.69;100.00
16544;BME280;8384;47.996;7.786;2022-09-17T06:28:33;98789.19;;;9.73;100.00
16544;BME280;8384;47.996;7.786;2022-09-17T06:31:00;98793.66;;;10.06;100.00
16544;BME280;8384;47.996;7.786;2022-09-17T06:33:25;98779.19;;;9.79;96.61
16544;BME280;8384;47.996;7.786;2022-09-17T06:36:00;98799.81;;;9.92;96.79
16544;BME280;8384;47.996;7.786;2022-09-17T06:38:27;98799.75;;;10.14;96.10
16544;BME280;8384;47.996;7.786;2022-09-17T06:40:53;98796.41;;;10.06;95.41
16544;BME280;8384;47.996;7.786;2022-09-17T06:43:19;98784.81;;;9.94;93.14
16544;BME280;8384;47.996;7.786;2022-09-17T06:45:55;98810.19;;;10.17;92.72
16544;BME280;8384;47.996;7.786;2022-09-17T06:48:22;98812.72;;;10.51;91.04
16544;BME280;8384;47.996;7.786;2022-09-17T06:50:48;98810.47;;;10.20;91.01
16544;BME280;8384;47.996;7.786;2022-09-17T06:53:13;98799.34;;;10.00;91.74
16544;BME280;8384;47.996;7.786;2022-09-17T06:55:39;98813.00;;;10.00;92.75
16544;BME280;8384;47.996;7.786;2022-09-17T06:58:05;98808.81;;;9.92;94.09
16544;BME280;8384;47.996;7.786;2022-09-17T07:00:30;98814.97;;;10.04;94.65
16544;BME280;8384;47.996;7.786;2022-09-17T07:02:56;98796.28;;;10.18;92.47
16544;BME280;8384;47.996;7.786;2022-09-17T07:05:23;98826.81;;;10.65;90.63
16544;BME280;8384;47.996;7.786;2022-09-17T07:07:49;98819.97;;;10.68;88.60
16544;BME280;8384;47.996;7.786;2022-09-17T07:10:14;98797.03;;;10.69;87.91
16544;BME280;8384;47.996;7.786;2022-09-17T07:12:40;98831.78;;;10.73;88.13
16544;BME280;8384;47.996;7.786;2022-09-17T07:15:06;98780.78;;;10.57;89.20
16544;BME280;8384;47.996;7.786;2022-09-17T07:17:31;98805.78;;;10.71;87.19
16544;BME280;8384;47.996;7.786;2022-09-17T07:19:56;98812.97;;;10.77;87.30
16544;BME280;8384;47.996;7.786;2022-09-17T07:22:23;98845.03;;;10.87;88.22
16544;BME280;8384;47.996;7.786;2022-09-17T07:24:48;98827.00;;;10.91;86.78
16544;BME280;8384;47.996;7.786;2022-09-17T07:27:14;98828.63;;;10.87;87.30
16544;BME280;8384;47.996;7.786;2022-09-17T07:29:39;98840.53;;;10.70;89.90
16544;BME280;8384;47.996;7.786;2022-09-17T07:32:05;98838.88;;;10.69;88.25
16544;BME280;8384;47.996;7.786;2022-09-17T07:34:31;98819.34;;;10.60;87.28
16544;BME280;8384;47.996;7.786;2022-09-17T07:36:56;98835.63;;;10.72;88.13
16544;BME280;8384;47.996;7.786;2022-09-17T07:39:22;98841.72;;;10.85;87.16
16544;BME280;8384;47.996;7.786;2022-09-17T07:41:47;98838.19;;;10.89;86.78
16544;BME280;8384;47.996;7.786;2022-09-17T07:44:12;98811.91;;;11.21;83.06
16544;BME280;8384;47.996;7.786;2022-09-17T07:46:37;98832.47;;;11.29;81.19
16544;BME280;8384;47.996;7.786;2022-09-17T07:49:03;98848.75;;;11.51;81.97
16544;BME280;8384;47.996;7.786;2022-09-17T07:51:28;98837.25;;;11.49;81.13
16544;BME280;8384;47.996;7.786;2022-09-17T07:53:54;98839.75;;;11.13;81.88
16544;BME280;8384;47.996;7.786;2022-09-17T07:56:22;98843.81;;;11.05;80.02
16544;BME280;8384;47.996;7.786;2022-09-17T07:58:47;98856.44;;;11.11;79.68
16544;BME280;8384;47.996;7.786;2022-09-17T08:01:14;98850.78;;;11.23;77.70
16544;BME280;8384;47.996;7.786;2022-09-17T08:03:47;98846.66;;;10.88;75.78
16544;BME280;8384;47.996;7.786;2022-09-17T08:06:14;98853.81;;;11.27;75.72
16544;BME280;8384;47.996;7.786;2022-09-17T08:08:40;98856.72;;;11.15;78.25
16544;BME280;8384;47.996;7.786;2022-09-17T08:11:11;98852.91;;;11.16;78.27
16544;BME280;8384;47.996;7.786;2022-09-17T08:13:37;98854.66;;;11.32;77.68
16544;BME280;8384;47.996;7.786;2022-09-17T08:16:08;98861.06;;;11.10;79.82
16544;BME280;8384;47.996;7.786;2022-09-17T08:18:34;98866.72;;;10.99;81.19
16544;BME280;8384;47.996;7.786;2022-09-17T08:21:01;98867.38;;;11.11;80.50
16544;BME280;8384;47.996;7.786;2022-09-17T08:23:28;98863.28;;;11.14;82.77
16544;BME280;8384;47.996;7.786;2022-09-17T08:25:55;98862.63;;;10.96;82.82
16544;BME280;8384;47.996;7.786;2022-09-17T08:28:21;98867.00;;;11.02;84.82
16544;BME280;8384;47.996;7.786;2022-09-17T08:30:47;98868.41;;;11.05;83.64
16544;BME280;8384;47.996;7.786;2022-09-17T08:33:14;98867.00;;;11.02;80.96
16544;BME280;8384;47.996;7.786;2022-09-17T08:35:39;98865.34;;;10.96;76.06
16544;BME280;8384;47.996;7.786;2022-09-17T08:38:05;98878.69;;;11.25;76.62
16544;BME280;8384;47.996;7.786;2022-09-17T08:40:31;98875.44;;;11.33;75.64
16544;BME280;8384;47.996;7.786;2022-09-17T08:43:03;98868.81;;;11.19;74.16
16544;BME280;8384;47.996;7.786;2022-09-17T08:45:29;98848.25;;;11.16;73.23
16544;BME280;8384;47.996;7.786;2022-09-17T08:48:02;98874.22;;;11.14;74.36
16544;BME280;8384;47.996;7.786;2022-09-17T08:50:34;98882.91;;;11.38;71.73
16544;BME280;8384;47.996;7.786;2022-09-17T08:53:09;98885.34;;;11.82;73.17
16544;BME280;8384;47.996;7.786;2022-09-17T08:55:41;98870.91;;;11.97;71.59
16544;BME280;8384;47.996;7.786;2022-09-17T08:58:19;98895.59;;;12.08;70.16
16544;BME280;8384;47.996;7.786;2022-09-17T09:01:24;98901.94;;;12.08;68.02
16544;BME280;8384;47.996;7.786;2022-09-17T09:06:30;98881.47;;;11.78;67.35
16544;BME280;8384;47.996;7.786;2022-09-17T09:09:19;98896.00;;;11.84;69.44
16544;BME280;8384;47.996;7.786;2022-09-17T09:11:47;98892.06;;;12.07;67.27
16544;BME280;8384;47.996;7.786;2022-09-17T09:16:45;98900.56;;;12.16;66.81
16544;BME280;8384;47.996;7.786;2022-09-17T09:19:23;98904.47;;;12.25;65.77
16544;BME280;8384;47.996;7.786;2022-09-17T09:27:48;98887.78;;;12.42;65.85
16544;BME280;8384;47.996;7.786;2022-09-17T09:30:18;98875.38;;;12.19;63.94
16544;BME280;8384;47.996;7.786;2022-09-17T09:35:23;98897.41;;;12.50;64.24
16544;BME280;8384;47.996;7.786;2022-09-17T09:38:15;98897.44;;;12.55;64.65
16544;BME280;8384;47.996;7.786;2022-09-17T09:40:59;98910.22;;;12.29;65.21
16544;BME280;8384;47.996;7.786;2022-09-17T09:43:38;98899.75;;;12.21;66.32
16544;BME280;8384;47.996;7.786;2022-09-17T09:49:29;98901.66;;;12.15;68.49
16544;BME280;8384;47.996;7.786;2022-09-17T09:52:12;98912.97;;;11.76;70.91
16544;BME280;8384;47.996;7.786;2022-09-17T09:57:17;98911.97;;;11.97;71.52
16544;BME280;8384;47.996;7.786;2022-09-17T09:59:44;98912.59;;;12.05;74.43
16544;BME280;8384;47.996;7.786;2022-09-17T10:02:10;98887.97;;;12.15;73.92
16544;BME280;8384;47.996;7.786;2022-09-17T10:04:35;98893.75;;;12.24;72.45
16544;BME280;8384;47.996;7.786;2022-09-17T10:07:04;98917.53;;;12.03;70.99
16544;BME280;8384;47.996;7.786;2022-09-17T10:09:31;98903.25;;;12.06;69.69
16544;BME280;8384;47.996;7.786;2022-09-17T10:14:36;98927.75;;;12.28;72.00
16544;BME280;8384;47.996;7.786;2022-09-17T10:19:41;98892.78;;;12.82;68.21
16544;BME280;8384;47.996;7.786;2022-09-17T10:22:27;98914.50;;;12.99;64.87
16544;BME280;8384;47.996;7.786;2022-09-17T10:24:55;98913.66;;;12.98;65.88
16544;BME280;8384;47.996;7.786;2022-09-17T10:27:22;98920.81;;;13.10;61.63
16544;BME280;8384;47.996;7.786;2022-09-17T10:29:51;98895.28;;;13.50;61.27
16544;BME280;8384;47.996;7.786;2022-09-17T10:32:20;98885.09;;;13.51;61.23
16544;BME280;8384;47.996;7.786;2022-09-17T10:34:58;98902.38;;;13.77;61.57
16544;BME280;8384;47.996;7.786;2022-09-17T10:37:47;98913.84;;;14.05;59.21
16544;BME280;8384;47.996;7.786;2022-09-17T10:42:42;98912.66;;;14.22;58.02
16544;BME280;8384;47.996;7.786;2022-09-17T10:45:24;98915.00;;;13.89;58.76
16544;BME280;8384;47.996;7.786;2022-09-17T10:47:50;98918.25;;;14.01;59.28
16544;BME280;8384;47.996;7.786;2022-09-17T10:52:54;98917.56;;;14.35;56.43
16544;BME280;8384;47.996;7.786;2022-09-17T10:55:28;98896.00;;;14.53;54.82
16544;BME280;8384;47.996;7.786;2022-09-17T11:09:07;98907.06;;;13.56;58.12
16544;BME280;8384;47.996;7.786;2022-09-17T11:15:02;98915.59;;;13.49;57.63
16544;BME280;8384;47.996;7.786;2022-09-17T11:17:52;98907.88;;;13.67;58.07
16544;BME280;8384;47.996;7.786;2022-09-17T11:26:38;98907.06;;;13.30;58.39
16544;BME280;8384;47.996;7.786;2022-09-17T11:33:15;98918.34;;;13.08;61.33
16544;BME280;8384;47.996;7.786;2022-09-17T11:35:19;98915.59;;;13.44;58.12
16544;BME280;8384;47.996;7.786;2022-09-17T11:38:09;98922.75;;;13.50;57.18
16544;BME280;8384;47.996;7.786;2022-09-17T11:44:00;98894.16;;;13.67;57.65
16544;BME280;8384;47.996;7.786;2022-09-17T11:46:15;98905.34;;;13.91;57.60
16544;BME280;8384;47.996;7.786;2022-09-17T11:48:46;98915.81;;;14.55;54.97
16544;BME280;8384;47.996;7.786;2022-09-17T11:51:32;98906.28;;;14.32;53.29
16544;BME280;8384;47.996;7.786;2022-09-17T11:54:14;98895.72;;;13.94;54.94
16544;BME280;8384;47.996;7.786;2022-09-17T11:56:43;98902.50;;;14.22;53.48
16544;BME280;8384;47.996;7.786;2022-09-17T11:59:25;98897.25;;;14.26;53.83
16544;BME280;8384;47.996;7.786;2022-09-17T12:02:12;98902.94;;;14.45;52.51
16544;BME280;8384;47.996;7.786;2022-09-17T12:04:56;98886.59;;;14.09;53.59
16544;BME280;8384;47.996;7.786;2022-09-17T12:08:26;98897.44;;;13.74;56.26
16544;BME280;8384;47.996;7.786;2022-09-17T12:10:44;98899.94;;;13.34;59.00
16544;BME280;8384;47.996;7.786;2022-09-17T12:15:49;98893.91;;;13.53;56.60
16544;BME280;8384;47.996;7.786;2022-09-17T12:20:53;98885.22;;;14.62;54.29
16544;BME280;8384;47.996;7.786;2022-09-17T12:23:34;98897.78;;;14.83;54.59
16544;BME280;8384;47.996;7.786;2022-09-17T12:37:15;98896.41;;;15.50;50.16
16544;BME280;8384;47.996;7.786;2022-09-17T12:40:00;98874.41;;;14.81;51.43
16544;BME280;8384;47.996;7.786;2022-09-17T12:42:45;98879.84;;;14.91;52.04
16544;BME280;8384;47.996;7.786;2022-09-17T12:45:22;98892.22;;;15.23;53.47
16544;BME280;8384;47.996;7.786;2022-09-17T12:53:21;98877.19;;;15.45;45.68
16544;BME280;8384;47.996;7.786;2022-09-17T12:55:59;98877.41;;;14.84;48.74
16544;BME280;8384;47.996;7.786;2022-09-17T13:01:12;98871.16;;;15.43;49.81
16544;BME280;8384;47.996;7.786;2022-09-17T13:03:45;98851.88;;;16.16;48.67
16544;BME280;8384;47.996;7.786;2022-09-17T13:09:02;98832.06;;;16.33;45.38
16544;BME280;8384;47.996;7.786;2022-09-17T13:11:47;98853.34;;;17.23;45.73
16544;BME280;8384;47.996;7.786;2022-09-17T13:17:17;98857.50;;;15.27;49.50
16544;BME280;8384;47.996;7.786;2022-09-17T13:20:13;98858.41;;;15.18;50.76
16544;BME280;8384;47.996;7.786;2022-09-17T13:22:48;98853.31;;;15.35;50.12
16544;BME280;8384;47.996;7.786;2022-09-17T13:25:18;98859.19;;;15.53;49.16
16544;BME280;8384;47.996;7.786;2022-09-17T13:27:45;98824.94;;;15.88;48.13
16544;BME280;8384;47.996;7.786;2022-09-17T13:30:20;98810.66;;;16.63;43.71
16544;BME280;8384;47.996;7.786;2022-09-17T13:32:50;98833.81;;;15.80;44.52
16544;BME280;8384;47.996;7.786;2022-09-17T13:40:24;98841.31;;;15.50;45.03
16544;BME280;8384;47.996;7.786;2022-09-17T13:42:53;98842.63;;;16.07;43.34
16544;BME280;8384;47.996;7.786;2022-09-17T13:45:21;98833.31;;;16.02;42.31
16544;BME280;8384;47.996;7.786;2022-09-17T13:47:59;98837.78;;;15.44;42.00
16544;BME280;8384;47.996;7.786;2022-09-17T13:50:30;98851.22;;;15.22;42.54
16544;BME280;8384;47.996;7.786;2022-09-17T13:55:47;98846.56;;;14.88;45.21
16544;BME280;8384;47.996;7.786;2022-09-17T14:08:46;98835.44;;;14.68;45.21
16544;BME280;8384;47.996;7.786;2022-09-17T14:13:50;98847.09;;;14.45;47.31
16544;BME280;8384;47.996;7.786;2022-09-17T14:16:30;98842.81;;;14.73;46.62
16544;BME280;8384;47.996;7.786;2022-09-17T14:21:42;98843.28;;;14.85;47.96
16544;BME280;8384;47.996;7.786;2022-09-17T14:27:12;98838.09;;;15.43;46.02
16544;BME280;8384;47.996;7.786;2022-09-17T14:30:13;98837.94;;;15.83;44.83
16544;BME280;8384;47.996;7.786;2022-09-17T14:33:05;98848.31;;;16.34;44.10
16544;BME280;8384;47.996;7.786;2022-09-17T14:35:49;98845.44;;;16.01;43.63
16544;BME280;8384;47.996;7.786;2022-09-17T14:38:41;98841.56;;;16.02;42.89
16544;BME280;8384;47.996;7.786;2022-09-17T14:46:29;98843.56;;;16.40;41.50
16544;BME280;8384;47.996;7.786;2022-09-17T14:49:23;98828.03;;;16.25;42.17
16544;BME280;8384;47.996;7.786;2022-09-17T14:51:50;98854.47;;;16.84;42.78
16544;BME280;8384;47.996;7.786;2022-09-17T14:59:43;98833.19;;;16.13;43.79
16544;BME280;8384;47.996;7.786;2022-09-17T15:02:34;98880.63;;;16.10;44.33
16544;BME280;8384;47.996;7.786;2022-09-17T15:05:00;98829.84;;;15.92;44.99
16544;BME280;8384;47.996;7.786;2022-09-17T15:07:28;98871.09;;;15.72;44.93
16544;BME280;8384;47.996;7.786;2022-09-17T15:10:05;98853.63;;;15.82;45.47
16544;BME280;8384;47.996;7.786;2022-09-17T15:12:30;98869.03;;;15.88;43.50
16544;BME280;8384;47.996;7.786;2022-09-17T15:14:56;98851.59;;;16.17;43.72
16544;BME280;8384;47.996;7.786;2022-09-17T15:17:22;98834.03;;;15.59;44.49
16544;BME280;8384;47.996;7.786;2022-09-17T15:19:50;98847.97;;;15.98;42.31
16544;BME280;8384;47.996;7.786;2022-09-17T15:22:31;98835.34;;;15.43;43.70
16544;BME280;8384;47.996;7.786;2022-09-17T15:25:01;98848.31;;;16.15;42.26
16544;BME280;8384;47.996;7.786;2022-09-17T15:27:36;98841.47;;;15.88;42.75
16544;BME280;8384;47.996;7.786;2022-09-17T15:30:08;98851.06;;;15.67;43.93
16544;BME280;8384;47.996;7.786;2022-09-17T15:32:34;98851.72;;;15.29;45.08
16544;BME280;8384;47.996;7.786;2022-09-17T15:40:22;98859.19;;;14.49;46.69
16544;BME280;8384;47.996;7.786;2022-09-17T15:43:00;98838.09;;;14.34;47.31
16544;BME280;8384;47.996;7.786;2022-09-17T15:45:28;98865.31;;;14.35;47.90
16544;BME280;8384;47.996;7.786;2022-09-17T15:47:58;98865.38;;;14.20;48.57
16544;BME280;8384;47.996;7.786;2022-09-17T15:50:28;98868.97;;;14.20;49.39
16544;BME280;8384;47.996;7.786;2022-09-17T15:53:49;98858.56;;;14.12;49.76
16544;BME280;8384;47.996;7.786;2022-09-17T15:55:44;98864.16;;;13.81;50.89
16544;BME280;8384;47.996;7.786;2022-09-17T15:58:26;98883.66;;;13.90;49.85
16544;BME280;8384;47.996;7.786;2022-09-17T16:08:41;98868.38;;;13.53;52.92
16544;BME280;8384;47.996;7.786;2022-09-17T16:11:07;98876.34;;;13.49;54.00
16544;BME280;8384;47.996;7.786;2022-09-17T16:13:33;98872.22;;;13.52;54.14
16544;BME280;8384;47.996;7.786;2022-09-17T16:15:58;98872.47;;;13.65;53.43
16544;BME280;8384;47.996;7.786;2022-09-17T16:18:23;98871.94;;;13.53;54.03
16544;BME280;8384;47.996;7.786;2022-09-17T16:20:49;98844.22;;;13.24;55.07
16544;BME280;8384;47.996;7.786;2022-09-17T16:23:14;98885.41;;;13.60;54.63